Time;durP1;ratioP1;P1;durP2;ratioP2;P2;SDS_P1;SDS_P2;PMS_P1;PMS_P2;Temp;Humidity;BMP_temperature;BMP_pressure;BME280_temperature;BME280_humidity;BME280_pressure;Samples;Min_cycle;Max_cycle;Signal;HPM_P1;HPM_P2
2023/04/18 00:00:23;;;;;;;12.75;8.25;;;5.50;99.90;;;;;;5052888;28;20041;-82
2023/04/18 00:02:52;;;;;;;14.43;8.80;;;5.40;99.90;;;;;;5070222;28;20044;-82
2023/04/18 00:05:19;;;;;;;13.30;8.07;;;5.50;99.90;;;;;;5057639;28;20465;-86
2023/04/18 00:07:45;;;;;;;18.35;9.20;;;5.50;99.90;;;;;;5046987;28;20048;-82
2023/04/18 00:10:10;;;;;;;16.17;8.68;;;5.60;99.90;;;;;;5058214;28;20109;-83
2023/04/18 00:12:36;;;;;;;14.18;7.40;;;5.80;99.90;;;;;;5053907;28;20080;-84
2023/04/18 00:15:04;;;;;;;18.10;8.13;;;5.70;99.90;;;;;;5071061;28;20044;-83
2023/04/18 00:17:31;;;;;;;13.27;8.27;;;5.80;99.90;;;;;;5051525;28;20052;-84
2023/04/18 00:19:57;;;;;;;15.10;8.52;;;5.60;99.90;;;;;;5034832;28;20482;-82
2023/04/18 00:22:24;;;;;;;14.32;8.18;;;5.90;99.90;;;;;;5053360;28;20501;-83
2023/04/18 00:24:51;;;;;;;13.57;8.10;;;5.60;99.90;;;;;;5054302;28;20055;-82
2023/04/18 00:27:20;;;;;;;13.52;7.82;;;5.90;99.90;;;;;;5070150;28;20055;-84
2023/04/18 00:29:47;;;;;;;14.90;8.35;;;5.70;99.90;;;;;;5052602;28;20059;-82
2023/04/18 00:32:13;;;;;;;13.77;7.68;;;5.80;99.90;;;;;;5036218;28;20045;-82
2023/04/18 00:34:39;;;;;;;14.07;8.45;;;6.40;99.90;;;;;;5037428;28;20036;-82
2023/04/18 00:37:06;;;;;;;14.43;7.70;;;5.40;99.90;;;;;;5053129;28;20052;-82
2023/04/18 00:39:33;;;;;;;14.30;7.53;;;5.70;99.90;;;;;;5069646;28;20049;-82
2023/04/18 00:42:00;;;;;;;13.02;7.57;;;5.50;99.90;;;;;;5069420;28;20036;-82
2023/04/18 00:44:26;;;;;;;14.35;7.60;;;5.60;99.90;;;;;;5033542;28;20087;-81
2023/04/18 00:46:51;;;;;;;11.27;6.90;;;5.50;99.90;;;;;;5017709;28;20084;-85
2023/04/18 00:49:17;;;;;;;12.40;7.35;;;6.00;99.90;;;;;;5049699;28;20398;-82
2023/04/18 00:51:44;;;;;;;12.25;7.72;;;5.70;99.90;;;;;;5043686;28;20097;-86
2023/04/18 00:54:11;;;;;;;11.55;6.85;;;5.80;99.90;;;;;;5050910;28;20056;-82
2023/04/18 00:56:38;;;;;;;11.23;7.07;;;5.70;99.90;;;;;;5065262;28;20052;-82
2023/04/18 00:59:06;;;;;;;17.38;7.43;;;5.80;99.90;;;;;;5041584;28;20055;-82
2023/04/18 01:01:32;;;;;;;13.05;7.20;;;5.70;99.90;;;;;;5067955;28;20497;-82
2023/04/18 01:03:58;;;;;;;14.73;8.57;;;5.90;99.90;;;;;;5070577;28;20048;-84
2023/04/18 01:06:26;;;;;;;12.68;7.22;;;5.60;99.90;;;;;;5049689;28;20051;-87
2023/04/18 01:08:55;;;;;;;12.15;7.45;;;5.50;99.90;;;;;;5048101;28;20061;-83
2023/04/18 01:11:21;;;;;;;13.05;7.20;;;5.80;99.90;;;;;;5053175;28;20136;-82
2023/04/18 01:14:00;;;;;;;14.57;7.60;;;5.70;99.90;;;;;;5051475;28;20148;-83
2023/04/18 01:16:33;;;;;;;12.77;6.93;;;5.70;99.90;;;;;;5069805;28;20082;-86
2023/04/18 01:19:02;;;;;;;14.35;7.63;;;5.60;99.90;;;;;;5065220;28;20048;-82
2023/04/18 01:21:29;;;;;;;13.85;6.93;;;5.60;99.90;;;;;;5069332;28;20075;-85
2023/04/18 01:24:03;;;;;;;14.05;6.88;;;5.60;99.90;;;;;;5059565;28;20118;-82
2023/04/18 01:26:29;;;;;;;13.00;7.50;;;5.70;99.90;;;;;;5068139;28;20056;-85
2023/04/18 01:28:54;;;;;;;13.05;7.15;;;6.20;99.90;;;;;;5069857;28;20098;-84
2023/04/18 01:31:20;;;;;;;12.48;7.25;;;5.40;99.90;;;;;;5069098;28;20321;-82
2023/04/18 01:33:46;;;;;;;17.83;7.75;;;5.60;99.90;;;;;;5038054;28;20047;-82
2023/04/18 01:36:11;;;;;;;12.70;7.72;;;5.60;99.90;;;;;;5048863;28;20049;-83
2023/04/18 01:38:37;;;;;;;13.32;7.57;;;5.50;99.90;;;;;;5033250;28;20045;-82
2023/04/18 01:41:03;;;;;;;11.93;7.35;;;5.50;99.90;;;;;;5069821;28;20048;-81
2023/04/18 01:43:29;;;;;;;13.98;8.38;;;5.50;99.90;;;;;;5069403;28;20080;-87
2023/04/18 01:45:54;;;;;;;14.07;7.82;;;5.80;99.90;;;;;;5063562;28;20098;-82
2023/04/18 01:48:20;;;;;;;16.35;9.05;;;5.70;99.90;;;;;;5068378;28;20110;-83
2023/04/18 01:50:46;;;;;;;11.50;7.35;;;5.80;99.90;;;;;;5028652;28;20048;-82
2023/04/18 01:53:11;;;;;;;11.80;7.13;;;5.60;99.90;;;;;;5042747;28;20378;-84
2023/04/18 01:55:37;;;;;;;16.77;7.90;;;5.90;99.90;;;;;;5046194;28;20048;-82
2023/04/18 01:58:03;;;;;;;14.52;8.05;;;5.90;99.90;;;;;;5070960;28;20521;-82
2023/04/18 02:00:28;;;;;;;14.10;8.25;;;5.70;99.90;;;;;;5068572;28;20097;-82
2023/04/18 02:02:56;;;;;;;14.48;8.10;;;5.80;99.90;;;;;;5064147;28;20048;-82
2023/04/18 02:05:22;;;;;;;14.65;8.23;;;6.00;99.90;;;;;;5039835;28;20383;-83
2023/04/18 02:07:49;;;;;;;14.43;8.13;;;5.70;99.90;;;;;;5052327;28;20043;-84
2023/04/18 02:10:14;;;;;;;11.23;7.03;;;5.90;99.90;;;;;;5053943;28;20052;-82
2023/04/18 02:12:40;;;;;;;15.27;8.38;;;5.60;99.90;;;;;;5055635;28;20052;-82
2023/04/18 02:15:06;;;;;;;19.17;9.20;;;6.00;99.90;;;;;;5040107;28;20051;-83
2023/04/18 02:17:32;;;;;;;12.88;7.57;;;5.70;99.90;;;;;;5066875;28;20037;-81
2023/04/18 02:19:58;;;;;;;14.30;8.07;;;5.90;99.90;;;;;;5056047;28;20055;-81
2023/04/18 02:22:23;;;;;;;12.95;7.65;;;5.90;99.90;;;;;;5045796;28;20553;-82
2023/04/18 02:24:49;;;;;;;14.23;8.30;;;5.70;99.90;;;;;;5039853;28;20078;-81
2023/04/18 02:27:15;;;;;;;11.63;7.57;;;6.00;99.90;;;;;;5056157;28;20474;-81
2023/04/18 02:29:40;;;;;;;14.98;8.65;;;6.00;99.90;;;;;;5056728;28;20060;-82
2023/04/18 02:32:06;;;;;;;16.08;8.27;;;6.20;99.90;;;;;;5048908;28;20048;-83
2023/04/18 02:34:32;;;;;;;13.98;8.25;;;5.90;99.90;;;;;;5054648;28;20059;-82
2023/04/18 02:36:58;;;;;;;17.65;8.48;;;6.10;99.90;;;;;;5070346;28;20048;-82
2023/04/18 02:39:24;;;;;;;11.95;7.22;;;6.20;99.90;;;;;;5071019;28;20033;-81
2023/04/18 02:41:50;;;;;;;13.82;7.82;;;6.40;99.90;;;;;;5054246;28;20093;-82
2023/04/18 02:44:15;;;;;;;13.88;7.95;;;6.20;99.90;;;;;;5053889;28;20037;-81
2023/04/18 02:46:41;;;;;;;13.43;7.78;;;6.10;99.90;;;;;;5041632;28;20064;-83
2023/04/18 02:49:07;;;;;;;16.08;8.68;;;6.30;99.90;;;;;;5053166;28;20041;-82
2023/04/18 02:51:33;;;;;;;13.52;7.82;;;6.20;99.90;;;;;;5069484;28;20086;-82
2023/04/18 02:53:58;;;;;;;14.00;8.27;;;6.60;99.90;;;;;;5065725;28;20129;-82
2023/04/18 02:56:24;;;;;;;13.80;8.05;;;6.00;99.90;;;;;;5071545;28;20056;-81
2023/04/18 02:58:50;;;;;;;13.30;7.70;;;6.20;99.90;;;;;;5070581;28;20056;-82
2023/04/18 03:01:16;;;;;;;13.27;8.13;;;5.90;99.90;;;;;;5071813;28;20486;-81
2023/04/18 03:03:42;;;;;;;14.35;7.75;;;6.30;99.90;;;;;;5053730;28;20101;-82
2023/04/18 03:06:08;;;;;;;14.48;8.15;;;6.10;99.90;;;;;;5023074;28;20049;-81
2023/04/18 03:08:33;;;;;;;12.13;7.60;;;6.40;99.90;;;;;;5070842;28;20519;-82
2023/04/18 03:11:05;;;;;;;13.73;7.80;;;6.20;99.90;;;;;;5055023;28;20098;-82
2023/04/18 03:13:33;;;;;;;13.70;7.90;;;6.10;99.90;;;;;;5053633;28;20064;-83
2023/04/18 03:15:59;;;;;;;14.20;7.72;;;6.40;99.90;;;;;;5071048;28;20464;-82
2023/04/18 03:18:25;;;;;;;14.18;7.53;;;6.20;99.90;;;;;;5054815;28;20049;-81
2023/04/18 03:20:51;;;;;;;13.27;7.78;;;6.00;99.90;;;;;;5070037;28;20553;-83
2023/04/18 03:23:17;;;;;;;14.70;7.65;;;6.10;99.90;;;;;;5019900;28;20123;-83
2023/04/18 03:25:42;;;;;;;11.10;7.28;;;6.30;99.90;;;;;;5054017;28;20075;-87
2023/04/18 03:28:08;;;;;;;18.23;7.68;;;6.10;99.90;;;;;;5081428;28;20086;-83
2023/04/18 03:30:34;;;;;;;17.05;8.02;;;6.20;99.90;;;;;;5038262;28;20090;-81
2023/04/18 03:33:01;;;;;;;13.82;6.95;;;6.20;99.90;;;;;;5048021;28;20036;-82
2023/04/18 03:35:27;;;;;;;14.93;8.00;;;6.10;99.90;;;;;;5057782;28;20045;-82
2023/04/18 03:37:53;;;;;;;12.43;7.03;;;6.70;99.90;;;;;;5017588;28;20051;-82
2023/04/18 03:40:18;;;;;;;12.07;7.18;;;6.70;99.90;;;;;;5071712;28;20043;-82
2023/04/18 03:42:44;;;;;;;16.80;7.25;;;6.20;99.90;;;;;;5050611;28;20486;-86
2023/04/18 03:45:10;;;;;;;13.95;7.18;;;6.30;99.90;;;;;;5032533;28;20363;-82
2023/04/18 03:47:36;;;;;;;14.27;7.80;;;6.40;99.90;;;;;;5054559;28;20056;-81
2023/04/18 03:50:02;;;;;;;13.95;7.75;;;6.80;99.90;;;;;;5049436;28;20571;-81
2023/04/18 03:52:28;;;;;;;14.00;7.10;;;6.30;99.90;;;;;;5045637;28;20131;-82
2023/04/18 03:54:53;;;;;;;12.43;7.15;;;6.50;99.90;;;;;;5063733;28;20105;-82
2023/04/18 03:57:19;;;;;;;13.63;7.30;;;6.40;99.90;;;;;;5040878;28;20044;-82
2023/04/18 03:59:45;;;;;;;12.73;7.40;;;6.30;99.90;;;;;;5064773;28;20045;-81
2023/04/18 04:02:10;;;;;;;13.02;7.22;;;6.20;99.90;;;;;;5065021;28;20099;-82
2023/04/18 04:04:36;;;;;;;14.40;7.32;;;6.10;99.90;;;;;;5053058;28;20583;-82
2023/04/18 04:07:02;;;;;;;12.30;7.40;;;6.30;99.90;;;;;;5065241;28;20125;-83
2023/04/18 04:09:28;;;;;;;12.60;7.55;;;6.30;99.90;;;;;;5069875;28;20047;-82
2023/04/18 04:11:53;;;;;;;12.27;7.00;;;6.50;99.90;;;;;;5068311;28;20070;-81
2023/04/18 04:14:20;;;;;;;10.77;6.55;;;6.10;99.90;;;;;;5034312;28;20101;-86
2023/04/18 04:16:46;;;;;;;13.18;6.97;;;6.20;99.90;;;;;;5036505;28;20044;-80
2023/04/18 04:19:11;;;;;;;13.00;7.05;;;5.90;99.90;;;;;;5070659;28;20193;-82
2023/04/18 04:21:37;;;;;;;14.35;7.22;;;6.40;99.90;;;;;;5053683;28;20040;-83
2023/04/18 04:24:03;;;;;;;12.30;7.38;;;6.40;99.90;;;;;;5053590;28;20374;-81
2023/04/18 04:26:29;;;;;;;12.30;6.75;;;5.90;99.90;;;;;;5046620;28;20083;-82
2023/04/18 04:28:56;;;;;;;12.73;7.07;;;6.20;99.90;;;;;;5043707;28;20049;-81
2023/04/18 04:31:21;;;;;;;12.88;7.05;;;6.10;99.90;;;;;;5046234;28;20052;-84
2023/04/18 04:33:47;;;;;;;14.05;6.93;;;6.20;99.90;;;;;;5035404;28;20548;-82
2023/04/18 04:36:13;;;;;;;14.55;7.18;;;6.30;99.90;;;;;;5057665;28;20056;-81
2023/04/18 04:38:40;;;;;;;14.32;7.13;;;6.20;99.90;;;;;;5044557;28;20122;-81
2023/04/18 04:41:06;;;;;;;10.00;6.22;;;6.10;99.90;;;;;;5036256;28;20087;-82
2023/04/18 04:43:32;;;;;;;11.77;6.53;;;6.20;99.90;;;;;;5053368;28;20044;-82
2023/04/18 04:45:58;;;;;;;11.90;6.68;;;6.10;99.90;;;;;;5070702;28;20041;-80
2023/04/18 04:48:24;;;;;;;13.05;6.82;;;6.20;99.90;;;;;;5064775;28;20056;-81
2023/04/18 04:50:55;;;;;;;13.25;6.95;;;6.50;99.90;;;;;;5060114;28;20044;-84
2023/04/18 04:53:22;;;;;;;14.13;6.85;;;6.30;99.90;;;;;;5056599;28;20433;-83
2023/04/18 04:55:48;;;;;;;12.40;6.70;;;6.20;99.90;;;;;;5074388;28;20083;-82
2023/04/18 04:58:14;;;;;;;10.60;6.70;;;6.30;99.90;;;;;;5056184;28;20082;-82
2023/04/18 05:00:39;;;;;;;13.30;7.43;;;6.50;99.90;;;;;;5057216;28;20075;-81
2023/04/18 05:03:06;;;;;;;12.90;7.15;;;6.60;99.90;;;;;;5058845;28;20089;-81
2023/04/18 05:05:32;;;;;;;11.43;6.50;;;6.30;99.90;;;;;;5069764;28;20076;-85
2023/04/18 05:07:58;;;;;;;12.40;7.30;;;6.60;99.90;;;;;;5058738;28;20087;-84
2023/04/18 05:10:24;;;;;;;10.98;6.53;;;6.60;99.90;;;;;;5071387;28;20101;-83
2023/04/18 05:12:50;;;;;;;11.15;6.47;;;6.60;99.90;;;;;;5049891;28;20557;-81
2023/04/18 05:15:16;;;;;;;12.43;6.50;;;6.40;99.90;;;;;;5041500;28;20180;-81
2023/04/18 05:17:42;;;;;;;12.02;6.88;;;6.60;99.90;;;;;;5057525;28;20492;-81
2023/04/18 05:20:08;;;;;;;10.88;6.32;;;6.90;99.90;;;;;;5036029;28;20106;-81
2023/04/18 05:22:35;;;;;;;11.95;6.32;;;6.80;99.90;;;;;;5054457;28;20042;-82
2023/04/18 05:25:01;;;;;;;10.55;6.10;;;6.80;99.90;;;;;;5070136;28;20048;-84
2023/04/18 05:27:27;;;;;;;11.10;6.30;;;7.00;99.90;;;;;;5078816;28;20040;-82
2023/04/18 05:29:53;;;;;;;12.75;6.75;;;6.90;99.90;;;;;;5069761;28;20128;-81
2023/04/18 05:32:19;;;;;;;10.80;7.00;;;6.90;99.90;;;;;;5073016;28;20051;-80
2023/04/18 05:34:44;;;;;;;14.52;7.15;;;7.00;99.90;;;;;;5054576;28;20473;-80
2023/04/18 05:37:10;;;;;;;11.95;6.72;;;7.10;99.90;;;;;;5074227;28;20089;-83
2023/04/18 05:39:36;;;;;;;12.77;7.88;;;7.00;99.90;;;;;;5074021;28;20089;-82
2023/04/18 05:42:02;;;;;;;12.27;7.35;;;7.00;99.90;;;;;;5071410;28;20036;-88
2023/04/18 05:44:28;;;;;;;12.95;7.47;;;7.10;99.90;;;;;;5072671;28;20124;-81
2023/04/18 05:46:54;;;;;;;13.75;7.75;;;7.10;99.90;;;;;;5043323;28;20049;-81
2023/04/18 05:49:20;;;;;;;16.50;7.68;;;7.10;99.90;;;;;;5050312;28;20101;-83
2023/04/18 05:51:48;;;;;;;15.23;7.68;;;7.40;99.90;;;;;;5074443;28;20082;-82
2023/04/18 05:54:15;;;;;;;10.98;7.20;;;7.50;99.90;;;;;;5056392;28;20105;-82
2023/04/18 05:56:41;;;;;;;14.25;7.88;;;7.30;99.90;;;;;;5056839;28;20054;-81
2023/04/18 05:59:07;;;;;;;15.88;7.93;;;7.40;99.90;;;;;;5073270;28;20127;-82
2023/04/18 06:01:33;;;;;;;12.23;7.35;;;7.60;99.90;;;;;;5057381;28;20096;-82
2023/04/18 06:03:59;;;;;;;12.93;7.32;;;7.70;99.90;;;;;;5057194;28;20051;-81
2023/04/18 06:06:25;;;;;;;12.20;7.45;;;7.40;99.90;;;;;;5057028;28;20048;-81
2023/04/18 06:08:50;;;;;;;18.38;8.27;;;7.80;99.90;;;;;;5057234;28;20044;-81
2023/04/18 06:11:18;;;;;;;19.02;7.50;;;7.80;99.90;;;;;;5055292;28;20055;-83
2023/04/18 06:13:44;;;;;;;14.68;8.00;;;7.70;99.90;;;;;;5072172;28;20124;-81
2023/04/18 06:16:10;;;;;;;15.75;9.30;;;7.60;99.90;;;;;;5071994;28;20147;-82
2023/04/18 06:18:36;;;;;;;15.63;8.85;;;7.90;99.90;;;;;;5064385;28;20040;-81
2023/04/18 06:21:01;;;;;;;18.10;10.40;;;7.80;99.90;;;;;;5048802;28;20087;-81
2023/04/18 06:23:27;;;;;;;20.90;9.90;;;7.90;99.90;;;;;;5060419;28;20048;-81
2023/04/18 06:25:53;;;;;;;21.23;10.40;;;8.10;99.90;;;;;;5069812;28;20048;-81
2023/04/18 06:28:19;;;;;;;23.63;10.20;;;7.90;99.90;;;;;;5073294;28;20044;-81
2023/04/18 06:30:45;;;;;;;16.60;9.10;;;8.30;99.90;;;;;;5073818;28;20036;-81
2023/04/18 06:33:10;;;;;;;17.52;9.65;;;8.30;99.90;;;;;;5072509;28;20464;-81
2023/04/18 06:35:37;;;;;;;15.07;8.65;;;8.30;99.90;;;;;;5058930;28;20089;-81
2023/04/18 06:38:02;;;;;;;16.55;9.15;;;8.50;99.90;;;;;;5077134;28;20481;-81
2023/04/18 06:40:28;;;;;;;13.02;7.93;;;8.60;99.90;;;;;;5056721;28;20050;-81
2023/04/18 06:42:54;;;;;;;14.88;8.07;;;8.60;99.90;;;;;;5073343;28;20036;-82
2023/04/18 06:45:20;;;;;;;12.88;8.25;;;8.70;99.90;;;;;;5060061;28;20086;-81
2023/04/18 06:47:46;;;;;;;13.48;8.32;;;8.70;99.90;;;;;;5072307;28;20105;-81
2023/04/18 06:50:13;;;;;;;14.95;8.63;;;8.70;99.90;;;;;;5057499;28;20070;-82
2023/04/18 06:52:44;;;;;;;12.68;7.93;;;8.90;99.90;;;;;;5072574;28;20044;-81
2023/04/18 06:55:12;;;;;;;13.60;7.60;;;9.00;99.90;;;;;;5040579;28;20059;-82
2023/04/18 06:57:41;;;;;;;12.60;7.93;;;9.10;99.90;;;;;;5037064;28;20075;-84
2023/04/18 07:00:08;;;;;;;13.48;7.88;;;9.20;99.90;;;;;;5066016;28;20493;-82
2023/04/18 07:02:38;;;;;;;14.57;7.70;;;9.20;99.90;;;;;;5053648;28;20131;-81
2023/04/18 07:05:05;;;;;;;14.30;7.47;;;9.10;74.70;;;;;;5056789;28;20127;-80
2023/04/18 07:07:32;;;;;;;15.07;7.45;;;9.20;85.90;;;;;;5063495;28;20108;-82
2023/04/18 07:09:58;;;;;;;12.18;7.32;;;9.20;91.50;;;;;;5073609;28;20084;-82
2023/04/18 07:12:24;;;;;;;10.13;6.70;;;9.30;74.60;;;;;;5056318;28;20075;-81
2023/04/18 07:14:50;;;;;;;11.40;6.55;;;9.20;65.20;;;;;;5073479;28;20052;-81
2023/04/18 07:17:16;;;;;;;10.48;7.38;;;9.30;53.00;;;;;;5086244;28;20111;-82
2023/04/18 07:19:42;;;;;;;13.75;7.28;;;9.40;60.50;;;;;;5056270;28;20052;-81
2023/04/18 07:22:08;;;;;;;15.93;7.45;;;9.40;47.80;;;;;;5073042;28;20040;-82
2023/04/18 07:24:35;;;;;;;11.15;6.43;;;9.50;37.90;;;;;;5055743;28;20811;-81
2023/04/18 07:27:05;;;;;;;14.60;7.22;;;9.60;38.40;;;;;;5056183;28;20048;-82
2023/04/18 07:29:31;;;;;;;12.10;6.88;;;9.70;28.30;;;;;;5064131;28;20048;-86
2023/04/18 07:31:57;;;;;;;13.30;7.22;;;9.70;26.30;;;;;;5056259;28;20059;-81
2023/04/18 07:34:24;;;;;;;11.05;6.07;;;10.00;21.70;;;;;;5042404;28;20048;-81
2023/04/18 07:36:50;;;;;;;13.00;7.40;;;10.10;17.60;;;;;;5068755;28;20072;-82
2023/04/18 07:39:16;;;;;;;13.73;7.07;;;10.20;11.50;;;;;;5072412;28;20126;-86
2023/04/18 07:41:41;;;;;;;14.48;7.55;;;10.20;1.00;;;;;;5055390;28;20048;-81
2023/04/18 07:44:07;;;;;;;14.48;7.95;;;10.20;1.00;;;;;;5031273;28;20044;-81
2023/04/18 07:46:33;;;;;;;11.45;7.28;;;10.30;1.00;;;;;;5089180;28;20036;-81
2023/04/18 07:49:01;;;;;;;12.82;7.38;;;10.30;1.00;;;;;;5053338;28;20083;-82
2023/04/18 07:51:30;;;;;;;10.73;6.57;;;10.30;1.00;;;;;;5055266;28;20055;-82
2023/04/18 07:53:57;;;;;;;8.40;6.25;;;10.20;1.00;;;;;;5039912;28;20049;-81
2023/04/18 07:56:23;;;;;;;11.55;7.05;;;10.00;1.00;;;;;;5072082;28;20119;-81
2023/04/18 07:58:49;;;;;;;9.88;6.97;;;9.90;1.40;;;;;;5055917;28;20139;-81
2023/04/18 08:01:17;;;;;;;9.18;6.22;;;9.70;4.10;;;;;;5056074;28;20044;-81
2023/04/18 08:03:43;;;;;;;10.93;6.75;;;9.70;7.90;;;;;;5071726;28;20084;-81
2023/04/18 08:06:09;;;;;;;11.23;6.55;;;9.50;17.80;;;;;;5072701;28;20076;-81
2023/04/18 08:08:34;;;;;;;8.73;5.60;;;9.60;26.70;;;;;;5088989;28;20521;-81
2023/04/18 08:11:00;;;;;;;9.80;6.20;;;9.60;10.70;;;;;;5047363;28;20568;-81
2023/04/18 08:13:26;;;;;;;9.95;5.63;;;9.30;9.30;;;;;;5050997;28;20040;-83
2023/04/18 08:15:52;;;;;;;9.57;6.28;;;9.60;7.90;;;;;;5055559;28;20044;-81
2023/04/18 08:18:18;;;;;;;12.38;5.80;;;9.50;17.60;;;;;;5072091;28;20044;-80
2023/04/18 08:20:45;;;;;;;8.75;5.45;;;9.60;17.30;;;;;;5038920;28;20139;-81
2023/04/18 08:23:11;;;;;;;12.15;6.15;;;9.90;12.40;;;;;;5035622;28;20497;-81
2023/04/18 08:25:37;;;;;;;11.15;5.93;;;10.50;1.70;;;;;;5055108;28;20079;-83
2023/04/18 08:28:03;;;;;;;12.00;5.65;;;11.00;1.00;;;;;;5039010;28;20045;-82
2023/04/18 08:30:29;;;;;;;8.93;5.97;;;11.50;1.00;;;;;;5070674;28;20070;-83
2023/04/18 08:32:54;;;;;;;7.88;5.43;;;11.60;1.00;;;;;;5031775;28;20071;-81
2023/04/18 08:35:20;;;;;;;10.07;6.03;;;11.80;1.00;;;;;;5071690;28;20585;-81
2023/04/18 08:37:46;;;;;;;9.55;5.88;;;11.90;1.00;;;;;;5071005;28;20054;-81
2023/04/18 08:40:12;;;;;;;10.48;5.90;;;12.00;1.00;;;;;;5035252;28;20481;-85
2023/04/18 08:42:38;;;;;;;9.82;5.70;;;11.90;1.00;;;;;;5044013;28;20450;-82
2023/04/18 08:45:05;;;;;;;8.40;5.85;;;11.90;1.00;;;;;;5039345;28;20053;-81
2023/04/18 08:47:34;;;;;;;9.75;5.88;;;12.00;1.00;;;;;;5056813;28;20052;-81
2023/04/18 08:50:00;;;;;;;7.28;5.50;;;11.70;1.00;;;;;;5074865;28;20461;-81
2023/04/18 08:52:29;;;;;;;8.20;5.90;;;11.50;1.00;;;;;;5074090;28;20418;-85
2023/04/18 08:54:56;;;;;;;9.75;5.78;;;11.20;1.00;;;;;;5058164;28;20489;-81
2023/04/18 08:57:29;;;;;;;8.02;5.35;;;11.10;1.00;;;;;;5045343;28;20056;-82
2023/04/18 08:59:56;;;;;;;9.02;5.60;;;11.30;1.00;;;;;;5055006;28;20498;-81
2023/04/18 09:02:37;;;;;;;8.85;5.25;;;11.50;1.00;;;;;;5067961;28;20048;-81
2023/04/18 09:05:15;;;;;;;8.70;5.20;;;11.70;1.00;;;;;;5065590;28;20044;-81
2023/04/18 09:07:41;;;;;;;8.50;5.82;;;11.80;1.00;;;;;;5072165;28;20040;-84
2023/04/18 09:10:08;;;;;;;6.68;4.95;;;11.90;1.00;;;;;;5075036;28;20378;-82
2023/04/18 09:12:48;;;;;;;7.55;5.03;;;11.90;1.00;;;;;;5078982;28;20086;-81
2023/04/18 09:15:16;;;;;;;7.47;5.18;;;12.00;1.00;;;;;;5060397;28;20048;-85
2023/04/18 09:17:52;;;;;;;7.65;4.78;;;12.50;1.00;;;;;;5065199;28;20101;-85
2023/04/18 09:20:34;;;;;;;7.93;5.65;;;13.10;1.00;;;;;;5074308;28;20039;-82
2023/04/18 09:23:05;;;;;;;6.75;4.70;;;13.70;1.00;;;;;;5071189;28;20118;-81
2023/04/18 09:25:41;;;;;;;6.80;5.28;;;14.60;1.00;;;;;;5070374;28;20048;-82
2023/04/18 09:28:23;;;;;;;8.85;5.20;;;15.00;1.00;;;;;;5074457;28;20853;-81
2023/04/18 09:30:53;;;;;;;11.13;4.95;;;15.60;1.00;;;;;;5057915;28;20148;-81
2023/04/18 09:33:33;;;;;;;6.13;4.53;;;16.30;1.00;;;;;;5073658;28;20040;-83
2023/04/18 09:36:18;;;;;;;6.45;4.78;;;17.20;1.00;;;;;;5057502;28;20127;-81
2023/04/18 09:38:44;;;;;;;8.43;5.50;;;17.80;1.00;;;;;;5057304;28;20056;-81
2023/04/18 09:41:11;;;;;;;7.03;4.70;;;18.00;1.00;;;;;;5073310;28;20278;-81
2023/04/18 09:43:37;;;;;;;9.60;5.53;;;18.60;1.00;;;;;;5066666;28;20473;-82
2023/04/18 09:46:03;;;;;;;7.60;5.78;;;19.00;1.00;;;;;;5050500;28;20055;-82
2023/04/18 09:48:29;;;;;;;8.02;5.63;;;19.50;1.00;;;;;;5073780;28;20052;-81
2023/04/18 09:50:55;;;;;;;6.25;4.97;;;20.00;1.00;;;;;;5060110;28;20131;-82
2023/04/18 09:53:21;;;;;;;6.57;4.57;;;20.50;1.00;;;;;;5072500;28;20819;-83
2023/04/18 09:55:53;;;;;;;7.95;5.38;;;20.60;1.00;;;;;;5073871;28;20044;-82
2023/04/18 09:58:21;;;;;;;6.68;4.88;;;20.80;1.00;;;;;;5061002;28;20098;-81
2023/04/18 10:00:50;;;;;;;7.43;5.43;;;20.70;1.00;;;;;;5056517;28;20151;-84
2023/04/18 10:03:17;;;;;;;8.57;5.25;;;19.60;1.00;;;;;;5074327;28;20044;-81
2023/04/18 10:05:47;;;;;;;7.18;5.40;;;19.70;1.00;;;;;;5038333;28;20588;-81
2023/04/18 10:08:13;;;;;;;6.15;4.85;;;20.00;1.00;;;;;;5063037;28;20063;-82
2023/04/18 10:10:40;;;;;;;5.97;4.75;;;20.20;1.00;;;;;;5044615;28;20091;-82
2023/04/18 10:13:10;;;;;;;9.27;5.90;;;20.30;1.00;;;;;;5077366;28;20135;-81
2023/04/18 10:15:37;;;;;;;6.00;5.05;;;20.60;1.00;;;;;;5055861;28;20474;-88
2023/04/18 10:18:08;;;;;;;7.20;5.00;;;21.00;1.00;;;;;;5082939;28;20035;-82
2023/04/18 10:20:34;;;;;;;5.47;4.32;;;21.50;1.00;;;;;;5064119;28;20442;-81
2023/04/18 10:23:35;;;;;;;6.65;4.68;;;21.80;1.00;;;;;;5059817;28;20142;-81
2023/04/18 10:26:03;;;;;;;5.45;4.90;;;21.60;1.00;;;;;;5069049;28;20538;-81
2023/04/18 10:28:49;;;;;;;5.90;4.57;;;22.00;1.00;;;;;;5082441;28;20044;-83
2023/04/18 10:31:15;;;;;;;6.55;5.07;;;22.40;1.00;;;;;;5077430;28;20058;-81
2023/04/18 10:33:51;;;;;;;8.43;4.78;;;22.80;1.00;;;;;;5040079;28;20673;-82
2023/04/18 10:36:19;;;;;;;;;;;23.00;1.00;;;;;;5057226;28;20091;-81
2023/04/18 10:38:50;;;;;;;6.95;5.03;;;23.10;1.00;;;;;;5060702;28;19942;-81
2023/04/18 10:41:27;;;;;;;6.78;4.60;;;23.30;1.00;;;;;;5077109;28;20392;-82
2023/04/18 10:44:22;;;;;;;7.07;5.25;;;23.50;1.00;;;;;;5060381;28;20342;-82
2023/04/18 10:46:51;;;;;;;8.15;5.85;;;23.40;1.00;;;;;;5063369;28;20401;-82
2023/04/18 10:49:26;;;;;;;8.75;5.03;;;23.70;1.00;;;;;;5075698;28;20052;-82
2023/04/18 10:51:59;;;;;;;6.60;4.97;;;23.90;1.00;;;;;;5076251;28;20051;-83
2023/04/18 10:54:36;;;;;;;6.20;5.35;;;24.00;1.00;;;;;;5077132;28;20146;-81
2023/04/18 10:57:03;;;;;;;8.02;5.43;;;23.40;1.00;;;;;;5077621;28;20493;-83
2023/04/18 10:59:35;;;;;;;14.57;7.15;;;23.30;1.00;;;;;;5077408;28;20044;-81
2023/04/18 11:02:05;;;;;;;9.88;6.50;;;23.40;1.00;;;;;;5060217;28;20052;-82
2023/04/18 11:04:31;;;;;;;8.23;6.32;;;23.10;1.00;;;;;;5066701;28;20036;-83
2023/04/18 11:06:57;;;;;;;8.77;6.50;;;23.20;1.00;;;;;;5049518;28;20058;-84
2023/04/18 11:09:23;;;;;;;7.65;6.20;;;23.30;1.00;;;;;;5060143;28;20072;-82
2023/04/18 11:12:06;;;;;;;8.73;6.43;;;23.40;1.00;;;;;;5060065;28;20127;-84
2023/04/18 11:14:43;;;;;;;7.93;6.32;;;23.20;1.00;;;;;;5076826;28;20121;-81
2023/04/18 11:17:20;;;;;;;8.70;6.30;;;23.40;1.00;;;;;;5059253;28;20048;-82
2023/04/18 11:19:47;;;;;;;6.70;5.95;;;23.30;1.00;;;;;;5059930;28;20056;-84
2023/04/18 11:22:13;;;;;;;7.85;6.53;;;23.20;1.00;;;;;;5075920;28;20123;-82
2023/04/18 11:24:39;;;;;;;12.13;7.20;;;23.70;1.00;;;;;;5076454;28;20055;-82
2023/04/18 11:27:11;;;;;;;9.15;6.00;;;23.70;1.00;;;;;;5076867;28;20040;-81
2023/04/18 11:29:37;;;;;;;8.80;6.25;;;24.10;1.00;;;;;;5078869;28;20059;-82
2023/04/18 11:32:07;;;;;;;8.45;6.68;;;24.50;1.00;;;;;;5059015;28;20440;-82
2023/04/18 11:34:34;;;;;;;9.43;6.63;;;24.60;1.00;;;;;;5076289;28;20093;-81
2023/04/18 11:37:00;;;;;;;9.82;6.65;;;24.70;1.00;;;;;;5076251;28;20511;-81
2023/04/18 11:39:26;;;;;;;7.75;6.07;;;24.40;1.00;;;;;;5059875;28;20044;-84
2023/04/18 11:41:55;;;;;;;8.50;6.43;;;24.60;1.00;;;;;;5071069;28;20127;-82
2023/04/18 11:44:25;;;;;;;9.70;6.90;;;24.70;1.00;;;;;;5057391;28;20054;-82
2023/04/18 11:46:51;;;;;;;7.78;6.18;;;24.90;1.00;;;;;;5056157;28;20044;-82
2023/04/18 11:49:31;;;;;;;8.07;6.13;;;25.20;1.00;;;;;;5055383;28;20109;-83
2023/04/18 11:52:00;;;;;;;8.73;6.32;;;25.70;1.00;;;;;;5063437;28;20058;-81
2023/04/18 11:54:43;;;;;;;7.38;5.65;;;26.10;1.00;;;;;;5075929;28;20127;-81
2023/04/18 11:57:28;;;;;;;9.30;5.75;;;26.00;1.00;;;;;;5075638;28;20040;-82
2023/04/18 11:59:56;;;;;;;8.13;6.00;;;25.70;1.00;;;;;;5055536;28;20619;-81
2023/04/18 12:02:37;;;;;;;7.35;5.30;;;25.60;1.00;;;;;;5075595;28;20056;-82
2023/04/18 12:05:03;;;;;;;6.78;5.15;;;25.40;1.00;;;;;;5081274;28;20386;-82
2023/04/18 12:07:39;;;;;;;6.82;5.15;;;25.20;1.00;;;;;;5076536;28;20064;-81
2023/04/18 12:10:06;;;;;;;7.35;5.82;;;25.10;1.00;;;;;;5059109;28;20440;-81
2023/04/18 12:12:32;;;;;;;9.57;5.55;;;24.80;1.00;;;;;;5058856;28;20066;-81
2023/04/18 12:15:12;;;;;;;9.13;6.28;;;25.00;1.00;;;;;;5059008;28;20043;-81
2023/04/18 12:17:38;;;;;;;9.15;6.32;;;25.20;1.00;;;;;;5058721;28;20048;-83
2023/04/18 12:20:08;;;;;;;8.85;6.15;;;25.50;1.00;;;;;;5075615;28;20040;-81
2023/04/18 12:22:41;;;;;;;5.63;4.97;;;25.80;1.00;;;;;;5083568;28;20461;-82
2023/04/18 12:25:21;;;;;;;5.68;4.72;;;26.00;1.00;;;;;;5075216;28;20066;-82
2023/04/18 12:28:11;;;;;;;8.77;5.40;;;25.80;1.00;;;;;;5069485;28;20044;-84
2023/04/18 12:30:37;;;;;;;6.28;5.07;;;25.70;1.00;;;;;;5057614;28;20453;-81
2023/04/18 12:33:03;;;;;;;6.22;5.10;;;25.60;1.00;;;;;;5074580;28;20075;-81
2023/04/18 12:35:30;;;;;;;7.50;5.70;;;25.50;1.00;;;;;;5075726;28;20044;-82
2023/04/18 12:37:59;;;;;;;8.50;5.88;;;25.40;1.00;;;;;;5054649;28;20060;-83
2023/04/18 12:40:25;;;;;;;9.30;5.50;;;25.60;1.00;;;;;;5065052;28;20502;-81
2023/04/18 12:42:52;;;;;;;7.10;5.30;;;25.90;1.00;;;;;;5078250;28;20104;-82
2023/04/18 12:45:20;;;;;;;8.93;5.50;;;26.00;1.00;;;;;;5072411;28;20044;-82
2023/04/18 12:47:47;;;;;;;5.95;4.68;;;26.00;1.00;;;;;;5056078;28;20401;-82
2023/04/18 12:50:19;;;;;;;7.55;4.45;;;26.40;1.00;;;;;;5047977;28;20036;-82
2023/04/18 12:52:45;;;;;;;5.40;3.78;;;27.20;1.00;;;;;;5070403;28;20054;-82